sensor_id;sensor_type;location;lat;lon;timestamp;P1;durP1;ratioP1;P2;durP2;ratioP2
18340;SDS011;9296;48.084;16.352;2023-07-13T00:04:20;5.97;;;3.05;;
18340;SDS011;9296;48.084;16.352;2023-07-13T00:06:49;6.32;;;3.03;;
18340;SDS011;9296;48.084;16.352;2023-07-13T00:09:16;4.28;;;3.00;;
18340;SDS011;9296;48.084;16.352;2023-07-13T00:11:45;5.00;;;3.05;;
18340;SDS011;9296;48.084;16.352;2023-07-13T00:14:12;5.60;;;3.08;;
18340;SDS011;9296;48.084;16.352;2023-07-13T00:16:40;4.35;;;2.92;;
18340;SDS011;9296;48.084;16.352;2023-07-13T00:19:08;4.97;;;2.92;;
18340;SDS011;9296;48.084;16.352;2023-07-13T00:21:36;4.88;;;2.85;;
18340;SDS011;9296;48.084;16.352;2023-07-13T00:24:05;3.65;;;2.80;;
18340;SDS011;9296;48.084;16.352;2023-07-13T00:26:32;4.85;;;2.95;;
18340;SDS011;9296;48.084;16.352;2023-07-13T00:29:00;3.50;;;2.60;;
18340;SDS011;9296;48.084;16.352;2023-07-13T00:34:31;5.13;;;2.80;;
18340;SDS011;9296;48.084;16.352;2023-07-13T00:36:58;4.90;;;2.50;;
18340;SDS011;9296;48.084;16.352;2023-07-13T00:39:27;4.60;;;2.90;;
18340;SDS011;9296;48.084;16.352;2023-07-13T00:41:54;6.38;;;2.80;;
18340;SDS011;9296;48.084;16.352;2023-07-13T00:50:28;3.85;;;2.65;;
18340;SDS011;9296;48.084;16.352;2023-07-13T00:52:55;5.18;;;2.90;;
18340;SDS011;9296;48.084;16.352;2023-07-13T00:55:24;4.47;;;3.00;;
18340;SDS011;9296;48.084;16.352;2023-07-13T00:57:51;4.38;;;2.80;;
18340;SDS011;9296;48.084;16.352;2023-07-13T01:00:19;2.70;;;2.00;;
18340;SDS011;9296;48.084;16.352;2023-07-13T01:02:48;5.80;;;2.35;;
18340;SDS011;9296;48.084;16.352;2023-07-13T01:05:16;3.08;;;2.33;;
18340;SDS011;9296;48.084;16.352;2023-07-13T01:07:44;5.72;;;2.30;;
18340;SDS011;9296;48.084;16.352;2023-07-13T01:10:12;3.78;;;2.65;;
18340;SDS011;9296;48.084;16.352;2023-07-13T01:12:41;3.47;;;2.00;;
18340;SDS011;9296;48.084;16.352;2023-07-13T01:17:50;2.97;;;2.08;;
18340;SDS011;9296;48.084;16.352;2023-07-13T01:20:18;3.58;;;2.40;;
18340;SDS011;9296;48.084;16.352;2023-07-13T01:22:46;4.35;;;2.20;;
18340;SDS011;9296;48.084;16.352;2023-07-13T01:25:13;3.95;;;2.40;;
18340;SDS011;9296;48.084;16.352;2023-07-13T01:27:41;4.05;;;2.05;;
18340;SDS011;9296;48.084;16.352;2023-07-13T01:30:08;3.42;;;1.95;;
18340;SDS011;9296;48.084;16.352;2023-07-13T01:32:36;3.72;;;2.10;;
18340;SDS011;9296;48.084;16.352;2023-07-13T01:35:07;4.03;;;1.90;;
18340;SDS011;9296;48.084;16.352;2023-07-13T01:37:34;4.47;;;1.70;;
18340;SDS011;9296;48.084;16.352;2023-07-13T01:40:03;2.22;;;1.83;;
18340;SDS011;9296;48.084;16.352;2023-07-13T01:42:30;3.20;;;1.80;;
18340;SDS011;9296;48.084;16.352;2023-07-13T01:44:57;3.45;;;1.90;;
18340;SDS011;9296;48.084;16.352;2023-07-13T01:47:25;4.70;;;2.47;;
18340;SDS011;9296;48.084;16.352;2023-07-13T01:49:53;3.40;;;2.22;;
18340;SDS011;9296;48.084;16.352;2023-07-13T01:52:20;3.97;;;2.15;;
18340;SDS011;9296;48.084;16.352;2023-07-13T01:54:47;3.28;;;1.95;;
18340;SDS011;9296;48.084;16.352;2023-07-13T01:57:15;3.88;;;2.25;;
18340;SDS011;9296;48.084;16.352;2023-07-13T01:59:43;3.70;;;1.63;;
18340;SDS011;9296;48.084;16.352;2023-07-13T02:02:10;5.68;;;2.00;;
18340;SDS011;9296;48.084;16.352;2023-07-13T02:04:37;2.38;;;1.60;;
18340;SDS011;9296;48.084;16.352;2023-07-13T02:07:04;4.05;;;1.20;;
18340;SDS011;9296;48.084;16.352;2023-07-13T02:09:31;2.13;;;1.60;;
18340;SDS011;9296;48.084;16.352;2023-07-13T02:11:58;1.77;;;1.30;;
18340;SDS011;9296;48.084;16.352;2023-07-13T02:14:39;3.25;;;1.50;;
18340;SDS011;9296;48.084;16.352;2023-07-13T02:17:09;2.28;;;1.40;;
18340;SDS011;9296;48.084;16.352;2023-07-13T02:19:36;1.88;;;1.60;;
18340;SDS011;9296;48.084;16.352;2023-07-13T02:22:03;3.33;;;1.60;;
18340;SDS011;9296;48.084;16.352;2023-07-13T02:24:31;2.63;;;1.55;;
18340;SDS011;9296;48.084;16.352;2023-07-13T02:26:58;1.98;;;1.70;;
18340;SDS011;9296;48.084;16.352;2023-07-13T02:29:25;2.25;;;1.52;;
18340;SDS011;9296;48.084;16.352;2023-07-13T02:31:54;2.38;;;1.50;;
18340;SDS011;9296;48.084;16.352;2023-07-13T02:34:21;2.70;;;1.65;;
18340;SDS011;9296;48.084;16.352;2023-07-13T02:36:48;2.90;;;1.52;;
18340;SDS011;9296;48.084;16.352;2023-07-13T02:39:15;2.25;;;1.55;;
18340;SDS011;9296;48.084;16.352;2023-07-13T02:41:42;1.50;;;1.40;;
18340;SDS011;9296;48.084;16.352;2023-07-13T02:44:11;1.50;;;1.40;;
18340;SDS011;9296;48.084;16.352;2023-07-13T02:46:58;3.92;;;1.60;;
18340;SDS011;9296;48.084;16.352;2023-07-13T02:49:25;2.33;;;1.38;;
18340;SDS011;9296;48.084;16.352;2023-07-13T02:51:53;2.38;;;1.48;;
18340;SDS011;9296;48.084;16.352;2023-07-13T02:54:20;1.52;;;1.40;;
18340;SDS011;9296;48.084;16.352;2023-07-13T02:56:47;2.40;;;1.80;;
18340;SDS011;9296;48.084;16.352;2023-07-13T02:59:14;1.75;;;1.50;;
18340;SDS011;9296;48.084;16.352;2023-07-13T03:04:30;2.53;;;1.58;;
18340;SDS011;9296;48.084;16.352;2023-07-13T03:06:57;3.05;;;1.70;;
18340;SDS011;9296;48.084;16.352;2023-07-13T03:09:24;2.20;;;1.50;;
18340;SDS011;9296;48.084;16.352;2023-07-13T03:11:52;2.58;;;1.77;;
18340;SDS011;9296;48.084;16.352;2023-07-13T03:14:20;3.42;;;1.88;;
18340;SDS011;9296;48.084;16.352;2023-07-13T03:19:52;3.38;;;2.08;;
18340;SDS011;9296;48.084;16.352;2023-07-13T03:22:19;6.35;;;1.95;;
18340;SDS011;9296;48.084;16.352;2023-07-13T03:24:47;4.93;;;2.35;;
18340;SDS011;9296;48.084;16.352;2023-07-13T03:27:15;5.22;;;2.00;;
18340;SDS011;9296;48.084;16.352;2023-07-13T03:29:42;4.90;;;2.47;;
18340;SDS011;9296;48.084;16.352;2023-07-13T03:32:09;3.67;;;1.90;;
18340;SDS011;9296;48.084;16.352;2023-07-13T03:34:37;4.05;;;2.30;;
18340;SDS011;9296;48.084;16.352;2023-07-13T03:37:06;6.28;;;2.28;;
18340;SDS011;9296;48.084;16.352;2023-07-13T03:39:33;3.53;;;2.15;;
18340;SDS011;9296;48.084;16.352;2023-07-13T03:42:00;5.20;;;2.30;;
18340;SDS011;9296;48.084;16.352;2023-07-13T03:44:27;5.75;;;2.50;;
18340;SDS011;9296;48.084;16.352;2023-07-13T03:46:54;5.15;;;2.17;;
18340;SDS011;9296;48.084;16.352;2023-07-13T03:49:21;5.57;;;2.35;;
18340;SDS011;9296;48.084;16.352;2023-07-13T03:51:49;4.28;;;2.45;;
18340;SDS011;9296;48.084;16.352;2023-07-13T03:54:17;3.50;;;2.10;;
18340;SDS011;9296;48.084;16.352;2023-07-13T03:56:44;5.53;;;2.33;;
18340;SDS011;9296;48.084;16.352;2023-07-13T03:59:11;3.53;;;2.00;;
18340;SDS011;9296;48.084;16.352;2023-07-13T04:04:42;2.97;;;1.63;;
18340;SDS011;9296;48.084;16.352;2023-07-13T04:07:09;5.50;;;2.65;;
18340;SDS011;9296;48.084;16.352;2023-07-13T04:09:37;3.58;;;2.30;;
18340;SDS011;9296;48.084;16.352;2023-07-13T04:12:05;4.35;;;2.08;;
18340;SDS011;9296;48.084;16.352;2023-07-13T04:14:32;4.20;;;2.00;;
18340;SDS011;9296;48.084;16.352;2023-07-13T04:16:59;5.00;;;1.90;;
18340;SDS011;9296;48.084;16.352;2023-07-13T04:19:27;3.53;;;2.10;;
18340;SDS011;9296;48.084;16.352;2023-07-13T04:21:54;4.30;;;2.13;;
18340;SDS011;9296;48.084;16.352;2023-07-13T04:24:21;3.95;;;1.98;;
18340;SDS011;9296;48.084;16.352;2023-07-13T04:26:50;4.47;;;2.40;;
18340;SDS011;9296;48.084;16.352;2023-07-13T04:29:17;5.30;;;2.40;;
18340;SDS011;9296;48.084;16.352;2023-07-13T04:34:47;5.43;;;2.25;;
18340;SDS011;9296;48.084;16.352;2023-07-13T04:37:18;5.55;;;2.45;;
18340;SDS011;9296;48.084;16.352;2023-07-13T04:39:45;3.92;;;2.20;;
18340;SDS011;9296;48.084;16.352;2023-07-13T04:42:14;4.38;;;2.15;;
18340;SDS011;9296;48.084;16.352;2023-07-13T04:44:41;3.40;;;2.17;;
18340;SDS011;9296;48.084;16.352;2023-07-13T04:50:12;4.68;;;2.08;;
18340;SDS011;9296;48.084;16.352;2023-07-13T04:52:45;4.25;;;2.30;;
18340;SDS011;9296;48.084;16.352;2023-07-13T04:55:14;4.20;;;2.00;;
18340;SDS011;9296;48.084;16.352;2023-07-13T04:57:43;3.90;;;2.20;;
18340;SDS011;9296;48.084;16.352;2023-07-13T05:00:10;4.40;;;2.00;;
18340;SDS011;9296;48.084;16.352;2023-07-13T05:02:38;6.50;;;2.42;;
18340;SDS011;9296;48.084;16.352;2023-07-13T05:05:06;2.72;;;2.00;;
18340;SDS011;9296;48.084;16.352;2023-07-13T05:07:34;5.07;;;2.13;;
18340;SDS011;9296;48.084;16.352;2023-07-13T05:10:01;5.72;;;2.40;;
18340;SDS011;9296;48.084;16.352;2023-07-13T05:12:28;4.70;;;2.25;;
18340;SDS011;9296;48.084;16.352;2023-07-13T05:18:00;5.00;;;2.38;;
18340;SDS011;9296;48.084;16.352;2023-07-13T05:20:28;4.53;;;2.38;;
18340;SDS011;9296;48.084;16.352;2023-07-13T05:22:55;3.50;;;2.30;;
18340;SDS011;9296;48.084;16.352;2023-07-13T05:25:22;5.43;;;2.50;;
18340;SDS011;9296;48.084;16.352;2023-07-13T05:27:49;5.25;;;2.60;;
18340;SDS011;9296;48.084;16.352;2023-07-13T05:30:16;3.60;;;2.00;;
18340;SDS011;9296;48.084;16.352;2023-07-13T05:32:44;2.90;;;1.90;;
18340;SDS011;9296;48.084;16.352;2023-07-13T05:35:13;4.05;;;2.17;;
18340;SDS011;9296;48.084;16.352;2023-07-13T05:37:41;3.38;;;2.15;;
18340;SDS011;9296;48.084;16.352;2023-07-13T05:40:08;3.28;;;2.00;;
18340;SDS011;9296;48.084;16.352;2023-07-13T05:42:35;2.33;;;1.50;;
18340;SDS011;9296;48.084;16.352;2023-07-13T05:45:11;4.22;;;1.70;;
18340;SDS011;9296;48.084;16.352;2023-07-13T05:47:39;2.35;;;1.42;;
18340;SDS011;9296;48.084;16.352;2023-07-13T05:50:06;3.75;;;1.70;;
18340;SDS011;9296;48.084;16.352;2023-07-13T05:52:35;5.30;;;1.60;;
18340;SDS011;9296;48.084;16.352;2023-07-13T05:55:02;2.50;;;1.33;;
18340;SDS011;9296;48.084;16.352;2023-07-13T05:57:30;2.35;;;1.50;;
18340;SDS011;9296;48.084;16.352;2023-07-13T05:59:57;5.78;;;1.38;;
18340;SDS011;9296;48.084;16.352;2023-07-13T06:05:28;2.17;;;1.30;;
18340;SDS011;9296;48.084;16.352;2023-07-13T06:07:57;3.22;;;1.55;;
18340;SDS011;9296;48.084;16.352;2023-07-13T06:10:24;3.53;;;1.00;;
18340;SDS011;9296;48.084;16.352;2023-07-13T06:12:51;2.00;;;1.35;;
18340;SDS011;9296;48.084;16.352;2023-07-13T06:15:18;2.40;;;1.40;;
18340;SDS011;9296;48.084;16.352;2023-07-13T06:17:45;3.30;;;1.52;;
18340;SDS011;9296;48.084;16.352;2023-07-13T06:20:12;3.25;;;1.30;;
18340;SDS011;9296;48.084;16.352;2023-07-13T06:22:39;4.00;;;1.48;;
18340;SDS011;9296;48.084;16.352;2023-07-13T06:25:09;2.97;;;1.30;;
18340;SDS011;9296;48.084;16.352;2023-07-13T06:27:36;2.17;;;1.33;;
18340;SDS011;9296;48.084;16.352;2023-07-13T06:30:03;1.88;;;1.40;;
18340;SDS011;9296;48.084;16.352;2023-07-13T06:32:49;3.20;;;1.50;;
18340;SDS011;9296;48.084;16.352;2023-07-13T06:35:16;3.38;;;1.67;;
18340;SDS011;9296;48.084;16.352;2023-07-13T06:37:44;2.75;;;1.70;;
18340;SDS011;9296;48.084;16.352;2023-07-13T06:40:13;2.53;;;1.30;;
18340;SDS011;9296;48.084;16.352;2023-07-13T06:42:41;1.30;;;1.20;;
18340;SDS011;9296;48.084;16.352;2023-07-13T06:51:15;2.17;;;1.25;;
18340;SDS011;9296;48.084;16.352;2023-07-13T06:53:43;4.00;;;1.50;;
18340;SDS011;9296;48.084;16.352;2023-07-13T06:56:11;1.73;;;1.40;;
18340;SDS011;9296;48.084;16.352;2023-07-13T06:58:39;3.33;;;1.30;;
18340;SDS011;9296;48.084;16.352;2023-07-13T07:01:06;2.13;;;1.13;;
18340;SDS011;9296;48.084;16.352;2023-07-13T07:03:33;2.13;;;1.10;;
18340;SDS011;9296;48.084;16.352;2023-07-13T07:06:01;3.72;;;1.30;;
18340;SDS011;9296;48.084;16.352;2023-07-13T07:08:28;3.58;;;1.40;;
18340;SDS011;9296;48.084;16.352;2023-07-13T07:10:55;2.13;;;1.17;;
18340;SDS011;9296;48.084;16.352;2023-07-13T07:13:24;2.17;;;1.00;;
18340;SDS011;9296;48.084;16.352;2023-07-13T07:15:53;1.42;;;1.25;;
18340;SDS011;9296;48.084;16.352;2023-07-13T07:18:20;1.05;;;0.80;;
18340;SDS011;9296;48.084;16.352;2023-07-13T07:20:48;1.75;;;1.50;;
18340;SDS011;9296;48.084;16.352;2023-07-13T07:23:15;1.33;;;1.13;;
18340;SDS011;9296;48.084;16.352;2023-07-13T07:25:43;3.33;;;1.10;;
18340;SDS011;9296;48.084;16.352;2023-07-13T07:28:11;3.22;;;1.33;;
18340;SDS011;9296;48.084;16.352;2023-07-13T07:30:42;2.03;;;1.20;;
18340;SDS011;9296;48.084;16.352;2023-07-13T07:33:09;0.90;;;0.80;;
18340;SDS011;9296;48.084;16.352;2023-07-13T07:35:37;2.28;;;0.90;;
18340;SDS011;9296;48.084;16.352;2023-07-13T07:38:04;4.68;;;0.93;;
18340;SDS011;9296;48.084;16.352;2023-07-13T07:40:36;1.20;;;0.98;;
18340;SDS011;9296;48.084;16.352;2023-07-13T07:43:03;1.20;;;0.80;;
18340;SDS011;9296;48.084;16.352;2023-07-13T07:45:44;1.05;;;0.95;;
18340;SDS011;9296;48.084;16.352;2023-07-13T07:48:12;1.13;;;0.90;;
18340;SDS011;9296;48.084;16.352;2023-07-13T07:50:39;1.10;;;0.90;;
18340;SDS011;9296;48.084;16.352;2023-07-13T07:53:06;1.55;;;0.80;;
18340;SDS011;9296;48.084;16.352;2023-07-13T07:55:35;0.95;;;0.80;;
18340;SDS011;9296;48.084;16.352;2023-07-13T07:58:02;0.98;;;0.80;;
18340;SDS011;9296;48.084;16.352;2023-07-13T08:00:30;0.80;;;0.80;;
18340;SDS011;9296;48.084;16.352;2023-07-13T08:02:59;1.05;;;0.80;;
18340;SDS011;9296;48.084;16.352;2023-07-13T08:05:26;0.82;;;0.70;;
18340;SDS011;9296;48.084;16.352;2023-07-13T08:07:53;1.63;;;0.80;;
18340;SDS011;9296;48.084;16.352;2023-07-13T08:10:21;1.50;;;0.98;;
18340;SDS011;9296;48.084;16.352;2023-07-13T08:12:48;1.95;;;0.73;;
18340;SDS011;9296;48.084;16.352;2023-07-13T08:15:15;1.15;;;0.88;;
18340;SDS011;9296;48.084;16.352;2023-07-13T08:17:45;1.65;;;0.90;;
18340;SDS011;9296;48.084;16.352;2023-07-13T08:20:14;1.05;;;0.80;;
18340;SDS011;9296;48.084;16.352;2023-07-13T08:22:41;0.90;;;0.80;;
18340;SDS011;9296;48.084;16.352;2023-07-13T08:25:08;0.70;;;0.70;;
18340;SDS011;9296;48.084;16.352;2023-07-13T08:27:36;1.50;;;0.90;;
18340;SDS011;9296;48.084;16.352;2023-07-13T08:30:03;2.13;;;0.90;;
18340;SDS011;9296;48.084;16.352;2023-07-13T08:32:30;1.90;;;0.98;;
18340;SDS011;9296;48.084;16.352;2023-07-13T08:34:58;4.03;;;1.80;;
18340;SDS011;9296;48.084;16.352;2023-07-13T08:37:26;1.10;;;1.00;;
18340;SDS011;9296;48.084;16.352;2023-07-13T08:39:53;1.85;;;1.25;;
18340;SDS011;9296;48.084;16.352;2023-07-13T08:42:25;2.42;;;1.17;;
18340;SDS011;9296;48.084;16.352;2023-07-13T08:44:56;3.60;;;1.85;;
18340;SDS011;9296;48.084;16.352;2023-07-13T08:47:24;2.25;;;1.55;;
18340;SDS011;9296;48.084;16.352;2023-07-13T08:49:51;1.70;;;1.13;;
18340;SDS011;9296;48.084;16.352;2023-07-13T08:52:24;2.13;;;1.40;;
18340;SDS011;9296;48.084;16.352;2023-07-13T08:54:55;1.67;;;1.25;;
18340;SDS011;9296;48.084;16.352;2023-07-13T08:57:24;1.20;;;1.10;;
18340;SDS011;9296;48.084;16.352;2023-07-13T08:59:55;1.33;;;1.13;;
18340;SDS011;9296;48.084;16.352;2023-07-13T09:02:25;1.35;;;1.10;;
18340;SDS011;9296;48.084;16.352;2023-07-13T09:04:54;1.10;;;1.10;;
18340;SDS011;9296;48.084;16.352;2023-07-13T09:07:25;2.88;;;1.50;;
18340;SDS011;9296;48.084;16.352;2023-07-13T09:09:58;1.33;;;1.20;;
18340;SDS011;9296;48.084;16.352;2023-07-13T09:12:34;2.05;;;1.40;;
18340;SDS011;9296;48.084;16.352;2023-07-13T09:15:02;1.98;;;1.60;;
18340;SDS011;9296;48.084;16.352;2023-07-13T09:17:32;1.90;;;1.33;;
18340;SDS011;9296;48.084;16.352;2023-07-13T09:20:02;3.45;;;1.80;;
18340;SDS011;9296;48.084;16.352;2023-07-13T09:22:31;1.90;;;1.75;;
18340;SDS011;9296;48.084;16.352;2023-07-13T09:25:02;4.25;;;2.00;;
18340;SDS011;9296;48.084;16.352;2023-07-13T09:27:33;3.03;;;1.90;;
18340;SDS011;9296;48.084;16.352;2023-07-13T09:30:04;2.03;;;1.70;;
18340;SDS011;9296;48.084;16.352;2023-07-13T09:32:36;2.15;;;1.85;;
18340;SDS011;9296;48.084;16.352;2023-07-13T09:35:09;2.97;;;1.80;;
18340;SDS011;9296;48.084;16.352;2023-07-13T09:37:37;2.53;;;2.33;;
18340;SDS011;9296;48.084;16.352;2023-07-13T09:40:10;3.10;;;1.92;;
18340;SDS011;9296;48.084;16.352;2023-07-13T09:42:38;2.67;;;2.15;;
18340;SDS011;9296;48.084;16.352;2023-07-13T09:45:05;3.92;;;2.28;;
18340;SDS011;9296;48.084;16.352;2023-07-13T09:51:07;2.55;;;2.35;;
18340;SDS011;9296;48.084;16.352;2023-07-13T09:53:41;2.55;;;2.35;;
18340;SDS011;9296;48.084;16.352;2023-07-13T09:56:20;3.95;;;2.63;;
18340;SDS011;9296;48.084;16.352;2023-07-13T09:58:47;3.40;;;2.60;;
18340;SDS011;9296;48.084;16.352;2023-07-13T10:01:35;3.22;;;2.40;;
18340;SDS011;9296;48.084;16.352;2023-07-13T10:04:03;2.95;;;2.42;;
18340;SDS011;9296;48.084;16.352;2023-07-13T10:06:37;2.80;;;2.58;;
18340;SDS011;9296;48.084;16.352;2023-07-13T10:09:06;2.40;;;2.20;;
18340;SDS011;9296;48.084;16.352;2023-07-13T10:11:36;4.63;;;2.70;;
18340;SDS011;9296;48.084;16.352;2023-07-13T10:14:09;5.85;;;2.85;;
18340;SDS011;9296;48.084;16.352;2023-07-13T10:19:40;3.42;;;2.92;;
18340;SDS011;9296;48.084;16.352;2023-07-13T10:22:14;2.95;;;2.72;;
18340;SDS011;9296;48.084;16.352;2023-07-13T10:24:43;3.53;;;3.00;;
18340;SDS011;9296;48.084;16.352;2023-07-13T10:27:12;4.07;;;2.83;;
18340;SDS011;9296;48.084;16.352;2023-07-13T10:29:42;3.65;;;2.80;;
18340;SDS011;9296;48.084;16.352;2023-07-13T10:35:15;3.50;;;3.20;;
18340;SDS011;9296;48.084;16.352;2023-07-13T10:37:44;4.22;;;2.88;;
18340;SDS011;9296;48.084;16.352;2023-07-13T10:40:12;4.72;;;3.25;;
18340;SDS011;9296;48.084;16.352;2023-07-13T10:42:45;4.55;;;2.75;;
18340;SDS011;9296;48.084;16.352;2023-07-13T10:45:14;3.45;;;3.15;;
18340;SDS011;9296;48.084;16.352;2023-07-13T10:50:45;4.25;;;2.70;;
18340;SDS011;9296;48.084;16.352;2023-07-13T10:53:18;4.45;;;2.58;;
18340;SDS011;9296;48.084;16.352;2023-07-13T10:55:54;6.20;;;2.70;;
18340;SDS011;9296;48.084;16.352;2023-07-13T10:58:24;4.00;;;2.65;;
18340;SDS011;9296;48.084;16.352;2023-07-13T11:00:56;2.90;;;2.58;;
18340;SDS011;9296;48.084;16.352;2023-07-13T11:06:31;2.92;;;2.58;;
18340;SDS011;9296;48.084;16.352;2023-07-13T11:09:03;2.70;;;2.50;;
18340;SDS011;9296;48.084;16.352;2023-07-13T11:11:44;4.88;;;2.63;;
18340;SDS011;9296;48.084;16.352;2023-07-13T11:14:29;3.05;;;2.60;;
18340;SDS011;9296;48.084;16.352;2023-07-13T11:16:57;2.75;;;2.55;;
18340;SDS011;9296;48.084;16.352;2023-07-13T11:19:29;3.65;;;2.75;;
18340;SDS011;9296;48.084;16.352;2023-07-13T11:22:15;2.97;;;2.70;;
18340;SDS011;9296;48.084;16.352;2023-07-13T11:24:49;2.70;;;2.50;;
18340;SDS011;9296;48.084;16.352;2023-07-13T11:27:27;2.58;;;2.38;;
18340;SDS011;9296;48.084;16.352;2023-07-13T11:30:14;2.58;;;2.38;;
18340;SDS011;9296;48.084;16.352;2023-07-13T11:35:52;3.45;;;2.78;;
18340;SDS011;9296;48.084;16.352;2023-07-13T11:38:21;2.55;;;2.35;;
18340;SDS011;9296;48.084;16.352;2023-07-13T11:40:50;2.33;;;2.13;;
18340;SDS011;9296;48.084;16.352;2023-07-13T11:43:20;3.22;;;2.40;;
18340;SDS011;9296;48.084;16.352;2023-07-13T11:45:51;3.65;;;2.28;;
18340;SDS011;9296;48.084;16.352;2023-07-13T11:51:22;3.78;;;2.30;;
18340;SDS011;9296;48.084;16.352;2023-07-13T11:53:50;2.35;;;2.20;;
18340;SDS011;9296;48.084;16.352;2023-07-13T11:56:18;5.00;;;2.35;;
18340;SDS011;9296;48.084;16.352;2023-07-13T11:58:48;4.97;;;2.20;;
18340;SDS011;9296;48.084;16.352;2023-07-13T12:01:18;2.42;;;2.22;;
18340;SDS011;9296;48.084;16.352;2023-07-13T12:06:57;2.75;;;2.40;;
18340;SDS011;9296;48.084;16.352;2023-07-13T12:09:26;2.50;;;1.98;;
18340;SDS011;9296;48.084;16.352;2023-07-13T12:11:53;3.55;;;2.35;;
18340;SDS011;9296;48.084;16.352;2023-07-13T12:14:20;2.97;;;2.10;;
18340;SDS011;9296;48.084;16.352;2023-07-13T12:16:51;4.00;;;2.22;;
18340;SDS011;9296;48.084;16.352;2023-07-13T12:19:19;3.03;;;1.95;;
18340;SDS011;9296;48.084;16.352;2023-07-13T12:21:47;2.10;;;1.90;;
18340;SDS011;9296;48.084;16.352;2023-07-13T12:24:15;3.08;;;2.20;;
18340;SDS011;9296;48.084;16.352;2023-07-13T12:26:43;4.97;;;2.40;;
18340;SDS011;9296;48.084;16.352;2023-07-13T12:29:12;3.15;;;2.45;;
18340;SDS011;9296;48.084;16.352;2023-07-13T12:31:48;2.78;;;2.47;;
18340;SDS011;9296;48.084;16.352;2023-07-13T12:34:19;2.30;;;2.10;;
18340;SDS011;9296;48.084;16.352;2023-07-13T12:36:47;2.30;;;2.10;;
18340;SDS011;9296;48.084;16.352;2023-07-13T12:39:15;2.70;;;2.30;;
18340;SDS011;9296;48.084;16.352;2023-07-13T12:41:43;3.50;;;2.35;;
18340;SDS011;9296;48.084;16.352;2023-07-13T12:44:11;2.50;;;2.30;;
18340;SDS011;9296;48.084;16.352;2023-07-13T12:46:39;4.93;;;2.40;;
18340;SDS011;9296;48.084;16.352;2023-07-13T12:49:07;2.50;;;2.20;;
18340;SDS011;9296;48.084;16.352;2023-07-13T12:51:36;5.90;;;2.50;;
18340;SDS011;9296;48.084;16.352;2023-07-13T12:54:12;2.70;;;2.50;;
18340;SDS011;9296;48.084;16.352;2023-07-13T12:56:40;3.15;;;2.50;;
18340;SDS011;9296;48.084;16.352;2023-07-13T12:59:08;3.35;;;2.13;;
18340;SDS011;9296;48.084;16.352;2023-07-13T13:04:43;3.83;;;2.58;;
18340;SDS011;9296;48.084;16.352;2023-07-13T13:07:12;2.92;;;2.35;;
18340;SDS011;9296;48.084;16.352;2023-07-13T13:09:40;2.63;;;2.33;;
18340;SDS011;9296;48.084;16.352;2023-07-13T13:12:07;2.50;;;2.22;;
18340;SDS011;9296;48.084;16.352;2023-07-13T13:14:35;2.42;;;2.22;;
18340;SDS011;9296;48.084;16.352;2023-07-13T13:23:12;4.25;;;2.65;;
18340;SDS011;9296;48.084;16.352;2023-07-13T13:25:42;5.25;;;2.40;;
18340;SDS011;9296;48.084;16.352;2023-07-13T13:28:12;2.25;;;2.05;;
18340;SDS011;9296;48.084;16.352;2023-07-13T13:30:40;2.45;;;2.25;;
18340;SDS011;9296;48.084;16.352;2023-07-13T13:33:08;2.85;;;2.17;;
18340;SDS011;9296;48.084;16.352;2023-07-13T13:35:37;2.33;;;2.03;;
18340;SDS011;9296;48.084;16.352;2023-07-13T13:38:07;2.92;;;2.25;;
18340;SDS011;9296;48.084;16.352;2023-07-13T13:40:37;2.65;;;2.10;;
18340;SDS011;9296;48.084;16.352;2023-07-13T13:43:08;2.78;;;2.17;;
18340;SDS011;9296;48.084;16.352;2023-07-13T13:45:40;6.90;;;2.55;;
18340;SDS011;9296;48.084;16.352;2023-07-13T13:51:13;2.78;;;2.30;;
18340;SDS011;9296;48.084;16.352;2023-07-13T13:53:40;3.13;;;2.33;;
18340;SDS011;9296;48.084;16.352;2023-07-13T13:56:09;3.70;;;2.20;;
18340;SDS011;9296;48.084;16.352;2023-07-13T13:58:36;2.50;;;2.28;;
18340;SDS011;9296;48.084;16.352;2023-07-13T14:01:04;4.00;;;2.20;;
18340;SDS011;9296;48.084;16.352;2023-07-13T14:06:36;5.72;;;2.60;;
18340;SDS011;9296;48.084;16.352;2023-07-13T14:09:04;2.78;;;2.47;;
18340;SDS011;9296;48.084;16.352;2023-07-13T14:11:33;4.13;;;2.58;;
18340;SDS011;9296;48.084;16.352;2023-07-13T14:14:00;2.55;;;2.35;;
18340;SDS011;9296;48.084;16.352;2023-07-13T14:16:30;3.10;;;2.40;;
18340;SDS011;9296;48.084;16.352;2023-07-13T14:18:57;2.90;;;2.28;;
18340;SDS011;9296;48.084;16.352;2023-07-13T14:21:25;3.00;;;2.28;;
18340;SDS011;9296;48.084;16.352;2023-07-13T14:23:53;4.38;;;2.35;;
18340;SDS011;9296;48.084;16.352;2023-07-13T14:26:21;3.53;;;2.38;;
18340;SDS011;9296;48.084;16.352;2023-07-13T14:28:51;3.92;;;2.47;;
18340;SDS011;9296;48.084;16.352;2023-07-13T14:31:19;2.95;;;2.20;;
18340;SDS011;9296;48.084;16.352;2023-07-13T14:36:50;2.78;;;2.38;;
18340;SDS011;9296;48.084;16.352;2023-07-13T14:39:18;4.38;;;2.83;;
18340;SDS011;9296;48.084;16.352;2023-07-13T14:41:48;4.20;;;2.30;;
18340;SDS011;9296;48.084;16.352;2023-07-13T14:44:19;3.30;;;2.40;;
18340;SDS011;9296;48.084;16.352;2023-07-13T14:49:51;4.00;;;2.40;;
18340;SDS011;9296;48.084;16.352;2023-07-13T14:52:19;4.45;;;2.55;;
18340;SDS011;9296;48.084;16.352;2023-07-13T14:54:47;3.55;;;2.35;;
18340;SDS011;9296;48.084;16.352;2023-07-13T14:57:15;2.50;;;2.30;;
18340;SDS011;9296;48.084;16.352;2023-07-13T14:59:43;3.00;;;2.50;;
18340;SDS011;9296;48.084;16.352;2023-07-13T15:02:16;3.78;;;2.40;;
18340;SDS011;9296;48.084;16.352;2023-07-13T15:04:44;3.75;;;2.63;;
18340;SDS011;9296;48.084;16.352;2023-07-13T15:07:12;3.17;;;2.40;;
18340;SDS011;9296;48.084;16.352;2023-07-13T15:09:40;3.78;;;2.60;;
18340;SDS011;9296;48.084;16.352;2023-07-13T15:12:08;3.13;;;2.83;;
18340;SDS011;9296;48.084;16.352;2023-07-13T15:14:35;8.90;;;2.20;;
18340;SDS011;9296;48.084;16.352;2023-07-13T15:17:05;6.10;;;2.28;;
18340;SDS011;9296;48.084;16.352;2023-07-13T15:19:33;4.18;;;2.42;;
18340;SDS011;9296;48.084;16.352;2023-07-13T15:22:01;3.03;;;2.35;;
18340;SDS011;9296;48.084;16.352;2023-07-13T15:24:28;2.92;;;2.63;;
18340;SDS011;9296;48.084;16.352;2023-07-13T15:26:56;3.72;;;2.55;;
18340;SDS011;9296;48.084;16.352;2023-07-13T15:29:23;2.53;;;2.33;;
18340;SDS011;9296;48.084;16.352;2023-07-13T15:31:50;3.42;;;2.45;;
18340;SDS011;9296;48.084;16.352;2023-07-13T15:34:20;3.05;;;2.38;;
18340;SDS011;9296;48.084;16.352;2023-07-13T15:36:50;4.00;;;2.38;;
18340;SDS011;9296;48.084;16.352;2023-07-13T15:39:17;2.40;;;2.20;;
18340;SDS011;9296;48.084;16.352;2023-07-13T15:41:44;3.20;;;2.22;;
18340;SDS011;9296;48.084;16.352;2023-07-13T15:44:20;2.40;;;2.13;;
18340;SDS011;9296;48.084;16.352;2023-07-13T15:46:49;2.75;;;2.20;;
18340;SDS011;9296;48.084;16.352;2023-07-13T15:49:16;3.92;;;2.28;;
18340;SDS011;9296;48.084;16.352;2023-07-13T15:51:44;3.88;;;2.65;;
18340;SDS011;9296;48.084;16.352;2023-07-13T15:54:14;3.17;;;2.40;;
18340;SDS011;9296;48.084;16.352;2023-07-13T15:56:41;4.00;;;2.30;;
18340;SDS011;9296;48.084;16.352;2023-07-13T15:59:10;3.95;;;2.45;;
18340;SDS011;9296;48.084;16.352;2023-07-13T16:01:39;3.53;;;2.95;;
18340;SDS011;9296;48.084;16.352;2023-07-13T16:04:07;2.75;;;2.22;;
18340;SDS011;9296;48.084;16.352;2023-07-13T16:06:35;5.80;;;2.10;;
18340;SDS011;9296;48.084;16.352;2023-07-13T16:09:06;2.75;;;2.30;;
18340;SDS011;9296;48.084;16.352;2023-07-13T16:11:36;4.43;;;2.38;;
18340;SDS011;9296;48.084;16.352;2023-07-13T16:14:16;3.70;;;2.38;;
18340;SDS011;9296;48.084;16.352;2023-07-13T16:16:43;2.80;;;2.00;;
18340;SDS011;9296;48.084;16.352;2023-07-13T16:19:11;4.50;;;2.30;;
18340;SDS011;9296;48.084;16.352;2023-07-13T16:21:40;3.45;;;2.33;;
18340;SDS011;9296;48.084;16.352;2023-07-13T16:24:16;8.18;;;2.20;;
18340;SDS011;9296;48.084;16.352;2023-07-13T16:26:45;3.08;;;2.30;;